createdAt,value
2019-04-22T00:00:24.577Z,12.81
2019-04-22T00:01:25.875Z,12.84
2019-04-22T00:02:22.583Z,12.79
2019-04-22T00:03:27.414Z,12.69
2019-04-22T00:04:33.834Z,12.64
2019-04-22T00:05:42.772Z,12.66
2019-04-22T00:06:46.472Z,12.60
2019-04-22T00:07:46.311Z,12.45
2019-04-22T00:08:42.872Z,12.39
2019-04-22T00:09:47.425Z,12.42
2019-04-22T00:10:52.018Z,12.31
2019-04-22T00:11:45.699Z,12.31
2019-04-22T00:12:50.051Z,12.31
2019-04-22T00:13:56.996Z,12.36
2019-04-22T00:14:42.108Z,12.42
2019-04-22T00:15:42.417Z,12.46
2019-04-22T00:16:51.734Z,12.51
2019-04-22T00:17:53.788Z,12.44
2019-04-22T00:19:01.346Z,12.49
2019-04-22T00:19:53.833Z,12.44
2019-04-22T00:20:42.304Z,12.41
2019-04-22T00:21:51.200Z,12.42
2019-04-22T00:22:44.853Z,12.42
2019-04-22T00:23:45.309Z,12.34
2019-04-22T00:24:48.149Z,12.30
2019-04-22T00:25:49.406Z,12.41
2019-04-22T00:27:51.162Z,12.28
2019-04-22T00:28:52.185Z,12.37
2019-04-22T00:30:51.582Z,12.31
2019-04-22T00:31:40.391Z,12.30
2019-04-22T00:32:46.356Z,12.31
2019-04-22T00:33:39.369Z,12.39
2019-04-22T00:34:42.686Z,12.31
2019-04-22T00:35:43.921Z,12.16
2019-04-22T00:36:43.737Z,12.24
2019-04-22T00:37:43.284Z,12.21
2019-04-22T00:38:46.797Z,12.27
2019-04-22T00:39:46.581Z,12.27
2019-04-22T00:40:44.967Z,12.23
2019-04-22T00:41:43.831Z,12.08
2019-04-22T00:42:47.217Z,12.16
2019-04-22T00:43:48.135Z,12.11
2019-04-22T00:44:46.838Z,12.02
2019-04-22T00:45:44.726Z,12.13
2019-04-22T00:46:46.396Z,12.03
2019-04-22T00:47:46.253Z,11.97
2019-04-22T00:48:48.911Z,12.02
2019-04-22T00:50:48.212Z,11.95
2019-04-22T00:51:52.386Z,12.09
2019-04-22T00:52:39.897Z,12.06
2019-04-22T00:53:44.980Z,12.11
2019-04-22T00:54:48.968Z,12.11
2019-04-22T00:55:40.412Z,12.12
2019-04-22T00:56:40.831Z,11.98
2019-04-22T00:57:43.609Z,11.94
2019-04-22T00:58:41.356Z,11.89
2019-04-22T00:59:50.698Z,11.94
2019-04-22T01:00:51.481Z,11.98
2019-04-22T01:01:37.081Z,11.87
2019-04-22T01:03:51.085Z,11.94
2019-04-22T01:05:40.871Z,11.97
2019-04-22T01:06:38.832Z,12.05
2019-04-22T01:07:45.088Z,12.11
2019-04-22T01:08:51.409Z,12.09
2019-04-22T01:09:44.635Z,12.11
2019-04-22T01:10:49.844Z,12.16
2019-04-22T01:11:37.591Z,12.15
2019-04-22T01:12:39.200Z,12.26
2019-04-22T01:13:42.721Z,12.31
2019-04-22T01:14:41.311Z,12.30
2019-04-22T01:15:40.580Z,12.52
2019-04-22T01:17:43.502Z,12.61
2019-04-22T01:18:37.664Z,12.74
2019-04-22T01:19:47.237Z,12.60
2019-04-22T01:21:00.511Z,12.69
2019-04-22T01:21:40.921Z,12.71
2019-04-22T01:22:34.177Z,12.66
2019-04-22T01:23:34.392Z,12.73
2019-04-22T01:24:34.205Z,12.59
2019-04-22T01:25:37.514Z,12.59
2019-04-22T01:26:36.264Z,12.51
2019-04-22T01:27:30.983Z,12.39
2019-04-22T01:28:30.156Z,12.30
2019-04-22T01:29:32.141Z,12.30
2019-04-22T01:30:27.865Z,12.23
2019-04-22T01:31:20.315Z,12.21
2019-04-22T01:32:22.906Z,12.23
2019-04-22T01:34:32.211Z,12.05
2019-04-22T01:35:31.100Z,11.87
2019-04-22T01:36:38.681Z,11.75
2019-04-22T01:37:34.621Z,11.72
2019-04-22T01:38:43.373Z,11.65
2019-04-22T01:39:43.561Z,11.69
2019-04-22T01:40:45.422Z,11.59
2019-04-22T01:41:48.368Z,11.61
2019-04-22T01:42:45.350Z,11.71
2019-04-22T01:43:54.487Z,11.67
2019-04-22T01:44:38.827Z,11.68
2019-04-22T01:45:39.383Z,11.68
2019-04-22T01:46:47.630Z,11.67
2019-04-22T01:47:36.414Z,11.68
2019-04-22T01:48:39.429Z,11.65
2019-04-22T01:49:44.159Z,11.68
2019-04-22T01:50:38.494Z,11.69
2019-04-22T01:51:51.798Z,11.67
2019-04-22T01:52:41.144Z,11.68
2019-04-22T01:53:43.518Z,11.75
2019-04-22T01:54:40.306Z,11.93
2019-04-22T01:55:39.180Z,12.12
2019-04-22T01:56:41.072Z,12.16
2019-04-22T01:57:36.457Z,12.26
2019-04-22T01:58:33.261Z,12.37
2019-04-22T01:59:31.737Z,12.44
2019-04-22T02:00:42.465Z,12.37
2019-04-22T02:01:43.592Z,12.11
2019-04-22T02:03:40.055Z,12.05
2019-04-22T02:04:53.748Z,12.02
2019-04-22T02:07:29.432Z,11.93
2019-04-22T02:08:40.859Z,11.94
2019-04-22T02:09:31.653Z,12.02
2019-04-22T02:10:35.988Z,11.89
2019-04-22T02:11:33.871Z,11.79
2019-04-22T02:12:27.697Z,11.87
2019-04-22T02:13:35.327Z,11.86
2019-04-22T02:14:37.306Z,11.65
2019-04-22T02:16:21.177Z,11.69
2019-04-22T02:17:26.468Z,11.65
2019-04-22T02:19:19.162Z,11.67
2019-04-22T02:22:11.537Z,11.87
2019-04-22T02:23:40.223Z,11.98
2019-04-22T02:24:21.846Z,12.15
2019-04-22T02:25:24.173Z,12.09
2019-04-22T02:26:18.092Z,12.19
2019-04-22T02:28:28.337Z,12.52
2019-04-22T02:29:15.018Z,12.51
2019-04-22T02:30:14.253Z,12.52
2019-04-22T02:31:32.568Z,12.56
2019-04-22T02:32:27.319Z,12.71
2019-04-22T02:35:36.517Z,12.73
2019-04-22T02:37:18.855Z,12.69
2019-04-22T02:38:34.145Z,12.60
2019-04-22T02:39:19.872Z,12.63
2019-04-22T02:40:17.328Z,12.59
2019-04-22T02:42:13.690Z,12.64
2019-04-22T02:43:34.037Z,12.60
2019-04-22T02:44:20.454Z,12.67
2019-04-22T02:45:18.587Z,12.86
2019-04-22T02:46:32.840Z,12.71
2019-04-22T02:47:27.109Z,12.84
2019-04-22T02:48:34.103Z,12.84
2019-04-22T02:53:38.502Z,12.84
2019-04-22T02:55:23.112Z,12.73
2019-04-22T02:56:27.246Z,12.53
2019-04-22T02:57:35.816Z,12.64
2019-04-22T02:58:35.354Z,12.55
2019-04-22T02:59:27.943Z,12.48
2019-04-22T03:00:21.807Z,12.41
2019-04-22T03:02:19.323Z,12.42
2019-04-22T03:03:31.170Z,12.37
2019-04-22T03:04:20.691Z,12.41
2019-04-22T03:05:27.980Z,12.44
2019-04-22T03:07:21.189Z,12.42
2019-04-22T03:08:25.585Z,12.41
2019-04-22T03:09:18.102Z,12.48
2019-04-22T03:11:11.500Z,12.37
2019-04-22T03:12:11.539Z,12.30
2019-04-22T03:13:00.057Z,12.34
2019-04-22T03:14:03.283Z,12.48
2019-04-22T03:14:53.344Z,12.41
2019-04-22T03:16:14.058Z,12.33
2019-04-22T03:16:59.720Z,12.37
2019-04-22T03:18:00.928Z,12.51
2019-04-22T03:19:04.138Z,12.46
2019-04-22T03:20:09.087Z,12.46
2019-04-22T03:22:00.790Z,12.45
2019-04-22T03:23:10.848Z,12.53
2019-04-22T03:27:00.915Z,12.70
2019-04-22T03:27:54.206Z,12.60
2019-04-22T03:28:54.840Z,12.61
2019-04-22T03:30:36.872Z,12.49
2019-04-22T03:33:12.020Z,12.51
2019-04-22T03:36:05.782Z,12.64
2019-04-22T03:38:13.922Z,12.82
2019-04-22T03:39:19.419Z,12.97
2019-04-22T03:40:07.343Z,12.94
2019-04-22T03:41:05.583Z,12.97
2019-04-22T03:42:04.854Z,12.97
2019-04-22T03:44:23.527Z,13.02
2019-04-22T03:45:46.418Z,13.02
2019-04-22T03:47:12.157Z,13.06
2019-04-22T03:48:04.574Z,13.00
2019-04-22T03:49:11.684Z,12.97
2019-04-22T03:51:07.506Z,12.81
2019-04-22T03:53:04.098Z,12.97
2019-04-22T03:54:16.853Z,13.00
2019-04-22T03:55:15.729Z,12.88
2019-04-22T03:56:02.479Z,12.86
2019-04-22T03:58:11.107Z,12.81
2019-04-22T03:59:09.653Z,12.82
2019-04-22T04:00:03.932Z,12.71
2019-04-22T04:01:18.323Z,12.64
2019-04-22T04:03:04.650Z,12.63
2019-04-22T04:04:09.293Z,12.63
2019-04-22T04:04:52.397Z,12.48
2019-04-22T04:08:20.160Z,12.19
2019-04-22T04:08:59.248Z,12.21
2019-04-22T04:10:01.392Z,12.23
2019-04-22T04:10:52.727Z,12.19
2019-04-22T04:12:01.891Z,12.18
2019-04-22T04:13:02.906Z,12.11
2019-04-22T04:14:05.469Z,12.12
2019-04-22T04:15:46.618Z,12.30
2019-04-22T04:18:13.353Z,12.33
2019-04-22T04:19:13.790Z,12.26
2019-04-22T04:21:57.851Z,12.39
2019-04-22T04:25:54.267Z,12.31
2019-04-22T04:27:06.739Z,12.26
2019-04-22T04:28:24.423Z,12.37
2019-04-22T04:29:05.978Z,12.48
2019-04-22T04:31:17.548Z,12.66
2019-04-22T04:32:16.523Z,12.67
2019-04-22T04:33:54.548Z,12.81
2019-04-22T04:36:01.964Z,12.81
2019-04-22T04:39:00.358Z,12.82
2019-04-22T04:42:05.368Z,12.74
2019-04-22T04:42:54.456Z,12.82
2019-04-22T04:44:03.689Z,12.71
2019-04-22T04:45:12.466Z,12.74
2019-04-22T04:45:57.226Z,12.70
2019-04-22T04:50:01.493Z,12.64
2019-04-22T04:51:12.159Z,12.67
2019-04-22T04:52:19.770Z,12.55
2019-04-22T04:54:08.552Z,12.66
2019-04-22T04:55:05.433Z,12.64
2019-04-22T04:55:53.191Z,12.78
2019-04-22T04:57:09.377Z,12.67
2019-04-22T05:00:25.771Z,12.70
2019-04-22T05:00:57.196Z,12.69
2019-04-22T05:02:14.309Z,12.71
2019-04-22T05:04:00.270Z,12.81
2019-04-22T05:05:57.088Z,12.84
2019-04-22T05:06:59.919Z,12.89
2019-04-22T05:08:00.974Z,13.03
2019-04-22T05:09:11.625Z,13.04
2019-04-22T05:09:55.558Z,12.91
2019-04-22T05:12:22.137Z,13.04
2019-04-22T05:13:57.756Z,13.03
2019-04-22T05:16:03.148Z,13.03
2019-04-22T05:18:07.245Z,12.96
2019-04-22T05:18:51.073Z,12.91
2019-04-22T05:19:50.394Z,12.94
2019-04-22T05:21:01.266Z,13.00
2019-04-22T05:21:53.337Z,13.04
2019-04-22T05:22:44.257Z,13.02
2019-04-22T05:24:56.872Z,13.07
2019-04-22T05:25:40.347Z,13.10
2019-04-22T05:26:49.830Z,13.07
2019-04-22T05:27:45.337Z,13.06
2019-04-22T05:28:43.328Z,13.04
2019-04-22T05:30:00.656Z,13.06
2019-04-22T05:30:40.666Z,13.10
2019-04-22T05:32:33.842Z,13.10
2019-04-22T05:34:25.765Z,13.07
2019-04-22T05:35:23.016Z,13.09
2019-04-22T05:36:22.200Z,13.18
2019-04-22T05:37:20.624Z,13.19
2019-04-22T05:38:30.810Z,13.14
2019-04-22T05:39:16.839Z,13.28
2019-04-22T05:40:25.461Z,13.24
2019-04-22T05:41:23.332Z,13.27
2019-04-22T05:42:20.268Z,13.38
2019-04-22T05:43:21.593Z,13.38
2019-04-22T05:44:39.568Z,13.37
2019-04-22T05:46:15.353Z,13.25
2019-04-22T05:47:19.539Z,13.27
2019-04-22T05:48:18.839Z,13.27
2019-04-22T05:49:18.033Z,13.29
2019-04-22T05:50:20.367Z,13.29
2019-04-22T05:51:21.681Z,13.27
2019-04-22T05:52:14.877Z,13.32
2019-04-22T05:53:13.174Z,13.28
2019-04-22T05:54:20.953Z,13.32
2019-04-22T05:55:24.559Z,13.36
2019-04-22T05:56:28.185Z,13.37
2019-04-22T05:57:20.268Z,13.48
2019-04-22T05:58:15.373Z,13.53
2019-04-22T05:59:22.901Z,13.53
2019-04-22T06:00:22.827Z,13.56
2019-04-22T06:02:23.454Z,13.65
2019-04-22T06:03:16.735Z,13.62
2019-04-22T06:04:19.737Z,13.76
2019-04-22T06:05:17.066Z,13.68
2019-04-22T06:07:17.764Z,13.74
2019-04-22T06:08:19.687Z,13.80
2019-04-22T06:09:20.055Z,13.91
2019-04-22T06:10:24.399Z,13.91
2019-04-22T06:11:22.889Z,13.99
2019-04-22T06:12:12.176Z,13.98
2019-04-22T06:13:13.843Z,13.91
2019-04-22T06:14:13.930Z,13.94
2019-04-22T06:15:20.734Z,14.01
2019-04-22T06:16:18.555Z,14.02
2019-04-22T06:17:20.493Z,14.01
2019-04-22T06:19:18.538Z,14.13
2019-04-22T06:20:15.493Z,14.13
2019-04-22T06:21:22.524Z,14.21
2019-04-22T06:22:25.384Z,14.36
2019-04-22T06:23:24.167Z,14.38
2019-04-22T06:25:20.896Z,14.42
2019-04-22T06:26:20.685Z,14.57
2019-04-22T06:27:21.938Z,14.56
2019-04-22T06:28:25.870Z,14.64
2019-04-22T06:29:16.483Z,14.57
2019-04-22T06:30:15.367Z,14.61
2019-04-22T06:31:23.063Z,14.60
2019-04-22T06:32:28.200Z,14.54
2019-04-22T06:33:20.695Z,14.59
2019-04-22T06:34:17.787Z,14.69
2019-04-22T06:35:23.425Z,14.79
2019-04-22T06:36:15.574Z,14.79
2019-04-22T06:37:20.252Z,14.83
2019-04-22T06:38:30.490Z,14.88
2019-04-22T06:39:26.522Z,15.01
2019-04-22T06:40:16.418Z,14.91
2019-04-22T06:41:15.050Z,15.03
2019-04-22T06:42:16.402Z,15.02
2019-04-22T06:43:16.124Z,15.05
2019-04-22T06:44:21.465Z,15.09
2019-04-22T06:45:18.812Z,15.15
2019-04-22T06:46:17.315Z,15.09
2019-04-22T06:47:14.976Z,15.13
2019-04-22T06:48:19.208Z,15.27
2019-04-22T06:49:18.874Z,15.38
2019-04-22T06:50:16.922Z,15.39
2019-04-22T06:51:18.419Z,15.42
2019-04-22T06:53:33.214Z,15.45
2019-04-22T06:54:14.354Z,15.48
2019-04-22T06:55:16.402Z,15.48
2019-04-22T06:56:23.790Z,15.48
2019-04-22T06:57:11.550Z,15.57
2019-04-22T06:59:14.841Z,15.68
2019-04-22T07:00:22.861Z,15.68
2019-04-22T07:01:19.621Z,15.82
2019-04-22T07:02:16.593Z,15.78
2019-04-22T07:04:14.094Z,16.01
2019-04-22T07:05:19.675Z,16.01
2019-04-22T07:06:12.644Z,16.12
2019-04-22T07:07:12.333Z,16.18
2019-04-22T07:08:34.405Z,16.26
2019-04-22T07:10:23.665Z,16.34
2019-04-22T07:11:07.929Z,16.41
2019-04-22T07:12:11.942Z,16.48
2019-04-22T07:13:19.075Z,16.48
2019-04-22T07:14:09.295Z,16.59
2019-04-22T07:15:21.853Z,16.65
2019-04-22T07:16:15.041Z,16.70
2019-04-22T07:17:34.395Z,16.71
2019-04-22T07:18:18.514Z,16.88
2019-04-22T07:19:13.800Z,16.89
2019-04-22T07:20:10.966Z,16.99
2019-04-22T07:21:10.422Z,17.00
2019-04-22T07:22:23.583Z,17.10
2019-04-22T07:23:13.815Z,17.00
2019-04-22T07:24:27.817Z,17.07
2019-04-22T07:26:31.914Z,17.21
2019-04-22T07:27:34.690Z,17.13
2019-04-22T07:28:29.015Z,17.14
2019-04-22T07:29:32.647Z,17.21
2019-04-22T07:30:35.717Z,17.17
2019-04-22T07:31:36.868Z,17.23
2019-04-22T07:32:53.352Z,17.23
2019-04-22T07:34:33.271Z,17.29
2019-04-22T07:35:35.910Z,17.43
2019-04-22T07:36:54.700Z,17.36
2019-04-22T07:38:00.667Z,17.43
2019-04-22T07:39:35.607Z,17.64
2019-04-22T07:41:31.813Z,17.55
2019-04-22T07:42:32.833Z,17.57
2019-04-22T07:44:38.705Z,17.48
2019-04-22T07:45:40.895Z,17.58
2019-04-22T07:46:33.668Z,17.82
2019-04-22T07:47:38.311Z,17.87
2019-04-22T07:48:38.275Z,18.00
2019-04-22T07:50:43.080Z,18.22
2019-04-22T07:51:32.760Z,18.24
2019-04-22T07:52:38.847Z,18.11
2019-04-22T07:53:29.342Z,18.11
2019-04-22T07:54:32.702Z,18.13
2019-04-22T07:55:32.567Z,18.13
2019-04-22T07:56:31.691Z,18.21
2019-04-22T07:57:33.302Z,18.35
2019-04-22T07:58:28.963Z,18.37
2019-04-22T07:59:28.014Z,18.46
2019-04-22T08:00:35.726Z,18.57
2019-04-22T08:01:32.335Z,18.62
2019-04-22T08:02:32.793Z,18.55
2019-04-22T08:03:38.187Z,18.34
2019-04-22T08:04:51.292Z,18.35
2019-04-22T08:05:37.869Z,18.47
2019-04-22T08:06:29.645Z,18.55
2019-04-22T08:07:33.278Z,18.79
2019-04-22T08:08:33.997Z,18.74
2019-04-22T08:09:41.803Z,18.82
2019-04-22T08:12:34.897Z,18.90
2019-04-22T08:13:31.496Z,18.89
2019-04-22T08:14:34.575Z,18.87
2019-04-22T08:15:33.376Z,18.90
2019-04-22T08:16:33.865Z,18.97
2019-04-22T08:17:53.385Z,19.11
2019-04-22T08:20:28.919Z,19.21
2019-04-22T08:21:33.317Z,19.24
2019-04-22T08:22:27.218Z,19.33
2019-04-22T08:23:33.192Z,19.42
2019-04-22T08:24:35.617Z,19.42
2019-04-22T08:25:32.949Z,19.39
2019-04-22T08:26:33.271Z,19.55
2019-04-22T08:27:32.798Z,19.42
2019-04-22T08:28:31.922Z,19.46
2019-04-22T08:29:43.781Z,19.45
2019-04-22T08:30:33.806Z,19.53
2019-04-22T08:32:28.445Z,19.39
2019-04-22T08:33:38.202Z,19.53
2019-04-22T08:34:26.102Z,19.48
2019-04-22T08:35:50.257Z,19.43
2019-04-22T08:36:38.966Z,19.54
2019-04-22T08:39:40.632Z,19.68
2019-04-22T08:40:47.165Z,19.75
2019-04-22T08:42:28.002Z,19.91
2019-04-22T08:43:36.673Z,19.86
2019-04-22T08:44:40.188Z,19.72
2019-04-22T08:45:31.874Z,19.83
2019-04-22T08:46:34.064Z,19.94
2019-04-22T08:47:31.056Z,20.09
2019-04-22T08:48:30.850Z,20.01
2019-04-22T08:49:28.729Z,20.08
2019-04-22T08:50:26.872Z,20.23
2019-04-22T08:51:32.575Z,20.27
2019-04-22T08:52:54.462Z,20.34
2019-04-22T08:53:35.814Z,20.28
2019-04-22T08:54:26.011Z,20.43
2019-04-22T08:55:32.602Z,20.53
2019-04-22T09:00:12.990Z,20.69
2019-04-22T09:01:17.686Z,20.66
2019-04-22T09:02:20.488Z,20.59
2019-04-22T09:03:18.742Z,20.66
2019-04-22T09:04:11.927Z,20.66
2019-04-22T09:05:31.027Z,20.62
2019-04-22T09:08:19.098Z,20.72
2019-04-22T09:09:23.271Z,20.65
2019-04-22T09:10:21.887Z,20.80
2019-04-22T09:11:20.262Z,20.75
2019-04-22T09:13:14.402Z,20.75
2019-04-22T09:14:22.876Z,20.74
2019-04-22T09:15:23.122Z,20.69
2019-04-22T09:16:19.383Z,20.79
2019-04-22T09:17:14.655Z,20.76
2019-04-22T09:18:17.974Z,20.84
2019-04-22T09:19:12.246Z,20.89
2019-04-22T09:20:18.454Z,20.93
2019-04-22T09:21:18.739Z,20.98
2019-04-22T09:22:27.671Z,20.99
2019-04-22T09:23:27.953Z,21.11
2019-04-22T09:24:16.909Z,21.11
2019-04-22T09:25:06.684Z,21.20
2019-04-22T09:26:15.566Z,20.98
2019-04-22T09:27:33.193Z,21.01
2019-04-22T09:28:17.291Z,20.91
2019-04-22T09:29:23.600Z,21.08
2019-04-22T09:30:21.781Z,21.01
2019-04-22T09:31:11.099Z,20.93
2019-04-22T09:35:10.268Z,21.08
2019-04-22T09:36:18.000Z,20.96
2019-04-22T09:38:28.161Z,21.08
2019-04-22T09:39:15.721Z,21.14
2019-04-22T09:41:13.959Z,21.08
2019-04-22T09:42:09.081Z,21.21
2019-04-22T09:43:12.609Z,21.27
2019-04-22T09:44:09.331Z,21.24
2019-04-22T09:45:13.153Z,21.27
2019-04-22T09:46:14.867Z,21.38
2019-04-22T09:47:13.192Z,21.44
2019-04-22T09:49:12.257Z,21.61
2019-04-22T09:50:08.272Z,21.46
2019-04-22T09:51:07.068Z,21.46
2019-04-22T09:52:10.489Z,21.59
2019-04-22T09:54:02.360Z,21.54
2019-04-22T09:55:01.585Z,21.61
2019-04-22T09:55:56.792Z,21.66
2019-04-22T09:58:44.607Z,21.35
2019-04-22T09:59:43.795Z,21.53
2019-04-22T10:00:48.440Z,21.63
2019-04-22T10:03:45.175Z,21.66
2019-04-22T10:04:39.787Z,21.74
2019-04-22T10:05:40.846Z,21.69
2019-04-22T10:07:44.866Z,21.78
2019-04-22T10:10:35.444Z,21.78
2019-04-22T10:11:26.937Z,21.75
2019-04-22T10:12:25.241Z,21.86
2019-04-22T10:13:32.258Z,21.92
2019-04-22T10:15:07.960Z,21.94
2019-04-22T10:17:15.523Z,22.16
2019-04-22T10:18:09.321Z,22.31
2019-04-22T10:19:11.052Z,22.15
2019-04-22T10:20:10.234Z,22.12
2019-04-22T10:21:18.995Z,22.19
2019-04-22T10:22:11.601Z,22.10
2019-04-22T10:23:12.632Z,22.12
2019-04-22T10:24:09.304Z,22.22
2019-04-22T10:38:06.075Z,22.31
2019-04-22T10:43:51.064Z,22.74
2019-04-22T10:46:53.849Z,22.68
2019-04-22T10:47:54.269Z,22.63
2019-04-22T10:48:54.502Z,22.65
2019-04-22T10:49:56.295Z,22.67
2019-04-22T10:50:52.930Z,22.71
2019-04-22T10:51:55.480Z,22.69
2019-04-22T10:53:45.283Z,22.84
2019-04-22T10:54:45.525Z,22.83
2019-04-22T10:55:47.092Z,22.94
2019-04-22T10:56:45.282Z,23.07
2019-04-22T10:57:46.338Z,23.07
2019-04-22T10:58:44.930Z,23.02
2019-04-22T10:59:44.955Z,22.96
2019-04-22T11:00:45.300Z,23.12
2019-04-22T11:01:44.718Z,23.42
2019-04-22T11:02:47.847Z,23.64
2019-04-22T11:03:45.616Z,23.70
2019-04-22T11:04:45.974Z,23.74
2019-04-22T11:05:44.439Z,23.82
2019-04-22T11:06:52.151Z,23.78
2019-04-22T11:07:53.271Z,23.82
2019-04-22T11:08:52.347Z,23.79
2019-04-22T11:09:51.829Z,23.79
2019-04-22T11:11:00.408Z,23.71
2019-04-22T11:11:53.743Z,23.60
2019-04-22T11:12:45.180Z,23.61
2019-04-22T11:13:44.154Z,23.90
2019-04-22T11:14:43.815Z,24.17
2019-04-22T11:15:44.599Z,24.40
2019-04-22T11:16:43.680Z,24.35
2019-04-22T11:17:43.850Z,24.08
2019-04-22T11:18:43.542Z,23.92
2019-04-22T11:19:43.626Z,24.00
2019-04-22T11:20:44.029Z,24.20
2019-04-22T11:21:47.050Z,24.23
2019-04-22T11:22:44.552Z,24.40
2019-04-22T11:23:44.667Z,24.78
2019-04-22T11:24:44.351Z,24.79
2019-04-22T11:25:43.926Z,25.00
2019-04-22T11:26:43.204Z,25.04
2019-04-22T11:27:44.280Z,25.04
2019-04-22T11:28:43.431Z,24.97
2019-04-22T11:29:43.585Z,25.09
2019-04-22T11:30:42.897Z,25.35
2019-04-22T11:31:44.240Z,25.31
2019-04-22T11:32:42.582Z,25.53
2019-04-22T11:33:42.877Z,25.57
2019-04-22T11:34:42.891Z,26.11
2019-04-22T11:35:43.653Z,26.58
2019-04-22T11:36:43.011Z,26.64
2019-04-22T11:37:42.758Z,26.92
2019-04-22T11:38:48.610Z,26.67
2019-04-22T11:39:42.643Z,27.35
2019-04-22T11:40:45.990Z,27.24
2019-04-22T11:41:42.159Z,26.90
2019-04-22T11:42:41.919Z,27.04
2019-04-22T11:43:43.056Z,27.12
2019-04-22T11:44:43.169Z,27.41
2019-04-22T11:45:41.725Z,27.36
2019-04-22T11:46:43.138Z,27.92
2019-04-22T11:47:41.626Z,27.19
2019-04-22T11:48:42.411Z,27.60
2019-04-22T11:49:41.749Z,27.62
2019-04-22T11:50:42.097Z,27.41
2019-04-22T11:51:42.136Z,28.17
2019-04-22T11:52:42.631Z,27.77
2019-04-22T11:53:41.221Z,27.89
2019-04-22T11:54:41.311Z,28.14
2019-04-22T11:55:42.449Z,28.35
2019-04-22T11:56:41.144Z,28.14
2019-04-22T11:57:41.379Z,27.84
2019-04-22T11:58:40.909Z,28.11
2019-04-22T11:59:40.846Z,28.09
2019-04-22T12:00:41.092Z,28.28
2019-04-22T12:02:41.003Z,28.86
2019-04-22T12:03:41.887Z,28.86
2019-04-22T12:04:40.767Z,28.96
2019-04-22T12:06:41.889Z,29.10
2019-04-22T12:08:43.695Z,29.85
2019-04-22T12:09:41.700Z,29.74
2019-04-22T12:10:46.940Z,29.60
2019-04-22T12:11:40.792Z,29.34
2019-04-22T12:12:43.102Z,28.80
2019-04-22T12:13:40.051Z,29.16
2019-04-22T12:14:40.181Z,28.93
2019-04-22T12:15:40.797Z,28.69
2019-04-22T12:16:41.277Z,28.69
2019-04-22T12:17:40.459Z,28.96
2019-04-22T12:18:39.721Z,29.07
2019-04-22T12:19:40.119Z,29.50
2019-04-22T12:20:41.283Z,29.38
2019-04-22T12:21:39.524Z,28.87
2019-04-22T12:22:40.959Z,28.78
2019-04-22T12:23:39.407Z,28.49
2019-04-22T12:24:40.550Z,29.00
2019-04-22T12:25:47.696Z,29.01
2019-04-22T12:26:40.075Z,29.89
2019-04-22T12:27:39.170Z,30.29
2019-04-22T12:28:39.277Z,30.02
2019-04-22T12:29:39.054Z,29.65
2019-04-22T12:30:39.419Z,29.31
2019-04-22T12:31:39.935Z,29.41
2019-04-22T12:32:39.178Z,29.95
2019-04-22T12:33:39.322Z,30.03
2019-04-22T12:34:43.676Z,30.15
2019-04-22T12:35:38.910Z,30.06
2019-04-22T12:36:38.647Z,29.62
2019-04-22T12:37:46.788Z,29.38
2019-04-22T12:38:39.946Z,29.81
2019-04-22T12:39:39.247Z,30.18
2019-04-22T12:40:48.672Z,30.50
2019-04-22T12:41:38.389Z,30.24
2019-04-22T12:42:39.403Z,30.05
2019-04-22T12:43:38.729Z,30.53
2019-04-22T12:44:40.503Z,29.03
2019-04-22T12:45:38.563Z,29.28
2019-04-22T12:46:38.449Z,30.05
2019-04-22T12:47:40.144Z,30.11
2019-04-22T12:48:39.273Z,30.02
2019-04-22T12:49:40.597Z,29.87
2019-04-22T12:55:37.702Z,30.74
2019-04-22T12:56:37.646Z,30.62
2019-04-22T12:57:38.881Z,30.40
2019-04-22T12:58:37.983Z,30.10
2019-04-22T12:59:37.452Z,28.51
2019-04-22T13:00:38.431Z,27.67
2019-04-22T13:01:37.325Z,28.13
2019-04-22T13:02:37.177Z,28.13
2019-04-22T13:05:37.586Z,27.69
2019-04-22T13:06:37.560Z,27.76
2019-04-22T13:07:38.036Z,28.06
2019-04-22T13:08:38.108Z,28.24
2019-04-22T13:09:37.152Z,28.19
2019-04-22T13:10:46.854Z,28.51
2019-04-22T13:11:38.472Z,27.83
2019-04-22T13:12:37.132Z,28.17
2019-04-22T13:13:36.863Z,28.19
2019-04-22T13:14:36.897Z,28.14
2019-04-22T13:15:37.037Z,28.24
2019-04-22T13:16:36.322Z,28.04
2019-04-22T13:17:37.857Z,27.41
2019-04-22T13:18:43.436Z,26.94
2019-04-22T13:19:36.265Z,26.72
2019-04-22T13:20:36.511Z,26.69
2019-04-22T13:21:36.532Z,26.79
2019-04-22T13:22:36.896Z,26.80
2019-04-22T13:23:36.914Z,26.65
2019-04-22T13:24:36.180Z,26.21
2019-04-22T13:25:36.652Z,26.05
2019-04-22T13:26:36.016Z,26.09
2019-04-22T13:27:37.020Z,25.92
2019-04-22T13:28:36.792Z,25.94
2019-04-22T13:29:37.112Z,26.01
2019-04-22T13:30:36.894Z,26.08
2019-04-22T13:31:36.952Z,26.12
2019-04-22T13:32:36.794Z,26.02
2019-04-22T13:33:36.784Z,25.93
2019-04-22T13:34:42.330Z,25.96
2019-04-22T13:35:36.186Z,25.93
2019-04-22T13:36:36.340Z,26.11
2019-04-22T13:37:35.112Z,25.86
2019-04-22T13:38:35.392Z,25.90
2019-04-22T13:39:34.916Z,25.62
2019-04-22T13:40:34.927Z,25.75
2019-04-22T13:41:43.971Z,25.68
2019-04-22T13:42:35.422Z,25.57
2019-04-22T13:43:34.848Z,25.60
2019-04-22T13:44:35.588Z,25.60
2019-04-22T13:45:36.088Z,25.77
2019-04-22T13:46:35.613Z,26.04
2019-04-22T13:47:50.631Z,26.24
2019-04-22T13:49:00.628Z,26.47
2019-04-22T13:50:11.722Z,26.61
2019-04-22T13:51:05.723Z,26.39
2019-04-22T13:52:00.992Z,26.30
2019-04-22T13:53:24.158Z,26.35
2019-04-22T13:55:05.348Z,26.46
2019-04-22T13:55:16.153Z,26.57
2019-04-22T13:55:56.906Z,26.38
2019-04-22T13:56:55.138Z,26.08
2019-04-22T13:57:49.109Z,26.09
2019-04-22T13:58:49.858Z,26.05
2019-04-22T13:59:40.971Z,25.84
2019-04-22T14:00:34.493Z,26.02
2019-04-22T14:01:34.734Z,26.05
2019-04-22T14:02:34.659Z,26.11
2019-04-22T14:03:35.663Z,27.32
2019-04-22T14:04:34.714Z,28.43
2019-04-22T14:05:33.203Z,29.14
2019-04-22T14:06:34.517Z,29.50
2019-04-22T14:07:33.077Z,30.27
2019-04-22T14:08:33.233Z,30.43
2019-04-22T14:09:33.933Z,30.62
2019-04-22T14:10:34.290Z,30.55
2019-04-22T14:12:16.301Z,30.19
2019-04-22T14:13:16.150Z,30.43
2019-04-22T14:14:15.644Z,29.23
2019-04-22T14:15:15.872Z,28.80
2019-04-22T14:16:15.361Z,28.36
2019-04-22T14:17:15.010Z,27.89
2019-04-22T14:18:15.067Z,27.62
2019-04-22T14:19:16.040Z,27.45
2019-04-22T14:20:15.139Z,27.44
2019-04-22T14:21:15.025Z,27.32
2019-04-22T14:22:15.962Z,26.90
2019-04-22T14:23:15.935Z,26.80
2019-04-22T14:24:15.798Z,26.79
2019-04-22T14:25:14.685Z,26.71
2019-04-22T14:26:15.461Z,26.83
2019-04-22T14:27:27.924Z,27.12
2019-04-22T14:29:15.641Z,28.32
2019-04-22T14:30:14.800Z,28.94
2019-04-22T14:31:14.760Z,29.44
2019-04-22T14:33:14.136Z,30.00
2019-04-22T14:34:15.564Z,29.38
2019-04-22T14:35:15.282Z,29.07
2019-04-22T14:36:15.234Z,29.59
2019-04-22T14:37:14.220Z,29.97
2019-04-22T14:39:13.647Z,30.43
2019-04-22T14:40:14.701Z,30.53
2019-04-22T14:41:32.764Z,29.59
2019-04-22T14:42:36.420Z,28.61
2019-04-22T14:43:39.562Z,28.69
2019-04-22T14:44:03.614Z,27.54
2019-04-22T14:44:12.632Z,29.99
2019-04-22T14:45:44.582Z,30.50
2019-04-22T14:46:47.803Z,30.89
2019-04-22T14:47:39.759Z,31.46
2019-04-22T14:48:41.887Z,32.09
2019-04-22T14:49:37.081Z,32.21
2019-04-22T14:50:35.162Z,32.40
2019-04-22T14:51:33.094Z,32.60
2019-04-22T14:52:34.526Z,32.47
2019-04-22T14:53:30.859Z,32.69
2019-04-22T14:54:28.458Z,32.11
2019-04-22T14:55:17.497Z,31.64
2019-04-22T14:56:12.873Z,30.99
2019-04-22T14:57:12.951Z,31.45
2019-04-22T14:58:13.063Z,31.53
2019-04-22T14:59:13.369Z,31.95
2019-04-22T15:00:13.601Z,32.28
2019-04-22T15:01:12.945Z,32.89
2019-04-22T15:02:12.706Z,32.54
2019-04-22T15:03:13.463Z,32.82
2019-04-22T15:04:13.349Z,32.02
2019-04-22T15:05:12.287Z,30.79
2019-04-22T15:06:12.631Z,30.59
2019-04-22T15:07:12.753Z,30.36
2019-04-22T15:08:13.128Z,30.53
2019-04-22T15:09:12.222Z,30.48
2019-04-22T15:10:11.832Z,30.50
2019-04-22T15:11:13.102Z,30.43
2019-04-22T15:12:20.546Z,30.21
2019-04-22T15:13:11.717Z,29.99
2019-04-22T15:14:11.721Z,29.89
2019-04-22T15:15:11.540Z,29.73
2019-04-22T15:16:11.878Z,30.26
2019-04-22T15:17:11.424Z,29.66
2019-04-22T15:18:11.368Z,29.87
2019-04-22T15:19:11.717Z,29.96
2019-04-22T15:20:11.940Z,29.93
2019-04-22T15:21:11.224Z,29.10
2019-04-22T15:22:12.492Z,28.80